sensor_id;sensor_type;location;lat;lon;timestamp;temperature;humidity
45339;DHT22;31071;51.478;5.710;2023-04-24T00:02:18;9.80;99.90
45339;DHT22;31071;51.478;5.710;2023-04-24T00:04:44;9.80;99.90
45339;DHT22;31071;51.478;5.710;2023-04-24T00:07:12;9.80;99.90
45339;DHT22;31071;51.478;5.710;2023-04-24T00:09:38;9.80;99.90
45339;DHT22;31071;51.478;5.710;2023-04-24T00:12:04;9.80;99.90
45339;DHT22;31071;51.478;5.710;2023-04-24T00:14:30;9.80;99.90
45339;DHT22;31071;51.478;5.710;2023-04-24T00:16:56;9.70;99.90
45339;DHT22;31071;51.478;5.710;2023-04-24T00:19:21;9.70;99.90
45339;DHT22;31071;51.478;5.710;2023-04-24T00:21:47;9.70;99.90
45339;DHT22;31071;51.478;5.710;2023-04-24T00:24:15;9.70;99.90
45339;DHT22;31071;51.478;5.710;2023-04-24T00:26:41;9.70;99.90
45339;DHT22;31071;51.478;5.710;2023-04-24T00:29:07;9.70;99.90
45339;DHT22;31071;51.478;5.710;2023-04-24T00:31:32;9.70;99.90
45339;DHT22;31071;51.478;5.710;2023-04-24T00:34:00;9.70;99.90
45339;DHT22;31071;51.478;5.710;2023-04-24T00:36:26;9.70;99.90
45339;DHT22;31071;51.478;5.710;2023-04-24T00:38:52;9.70;99.90
45339;DHT22;31071;51.478;5.710;2023-04-24T00:41:18;9.70;99.90
45339;DHT22;31071;51.478;5.710;2023-04-24T00:43:44;9.60;99.90
45339;DHT22;31071;51.478;5.710;2023-04-24T00:46:10;9.70;99.90
45339;DHT22;31071;51.478;5.710;2023-04-24T00:48:37;9.70;99.90
45339;DHT22;31071;51.478;5.710;2023-04-24T00:51:04;9.60;99.90
45339;DHT22;31071;51.478;5.710;2023-04-24T00:53:29;9.60;99.90
45339;DHT22;31071;51.478;5.710;2023-04-24T00:55:55;9.60;99.90
45339;DHT22;31071;51.478;5.710;2023-04-24T00:58:21;9.60;99.90
45339;DHT22;31071;51.478;5.710;2023-04-24T01:00:48;9.60;99.90
45339;DHT22;31071;51.478;5.710;2023-04-24T01:03:15;9.50;99.90
45339;DHT22;31071;51.478;5.710;2023-04-24T01:05:42;9.50;99.90
45339;DHT22;31071;51.478;5.710;2023-04-24T01:08:07;9.40;99.90
45339;DHT22;31071;51.478;5.710;2023-04-24T01:10:34;9.40;99.90
45339;DHT22;31071;51.478;5.710;2023-04-24T01:13:00;9.30;99.90
45339;DHT22;31071;51.478;5.710;2023-04-24T01:15:25;9.30;99.90
45339;DHT22;31071;51.478;5.710;2023-04-24T01:17:51;9.40;99.90
45339;DHT22;31071;51.478;5.710;2023-04-24T01:20:17;9.40;99.90
45339;DHT22;31071;51.478;5.710;2023-04-24T01:22:43;9.40;99.90
45339;DHT22;31071;51.478;5.710;2023-04-24T01:25:08;9.40;99.90
45339;DHT22;31071;51.478;5.710;2023-04-24T01:27:34;9.40;99.90
45339;DHT22;31071;51.478;5.710;2023-04-24T01:29:59;9.40;99.90
45339;DHT22;31071;51.478;5.710;2023-04-24T01:32:25;9.40;99.90
45339;DHT22;31071;51.478;5.710;2023-04-24T01:34:51;9.30;99.90
45339;DHT22;31071;51.478;5.710;2023-04-24T01:37:17;9.30;99.90
45339;DHT22;31071;51.478;5.710;2023-04-24T01:39:43;9.30;99.90
45339;DHT22;31071;51.478;5.710;2023-04-24T01:42:09;9.20;99.90
45339;DHT22;31071;51.478;5.710;2023-04-24T01:44:35;9.30;99.90
45339;DHT22;31071;51.478;5.710;2023-04-24T01:47:01;9.20;99.90
45339;DHT22;31071;51.478;5.710;2023-04-24T01:49:27;9.30;99.90
45339;DHT22;31071;51.478;5.710;2023-04-24T01:51:52;9.30;99.90
45339;DHT22;31071;51.478;5.710;2023-04-24T01:54:18;9.40;99.90
45339;DHT22;31071;51.478;5.710;2023-04-24T01:56:45;9.30;99.90
45339;DHT22;31071;51.478;5.710;2023-04-24T01:59:11;9.40;99.90
45339;DHT22;31071;51.478;5.710;2023-04-24T02:01:38;9.30;99.90
45339;DHT22;31071;51.478;5.710;2023-04-24T02:04:05;9.40;99.90
45339;DHT22;31071;51.478;5.710;2023-04-24T02:06:31;9.40;99.90
45339;DHT22;31071;51.478;5.710;2023-04-24T02:09:00;9.40;99.90
45339;DHT22;31071;51.478;5.710;2023-04-24T02:11:26;9.40;99.90
45339;DHT22;31071;51.478;5.710;2023-04-24T02:13:52;9.40;99.90
45339;DHT22;31071;51.478;5.710;2023-04-24T02:16:18;9.40;99.90
45339;DHT22;31071;51.478;5.710;2023-04-24T02:18:44;9.40;99.90
45339;DHT22;31071;51.478;5.710;2023-04-24T02:21:10;9.40;99.90
45339;DHT22;31071;51.478;5.710;2023-04-24T02:23:35;9.40;99.90
45339;DHT22;31071;51.478;5.710;2023-04-24T02:26:01;9.40;99.90
45339;DHT22;31071;51.478;5.710;2023-04-24T02:28:26;9.40;99.90
45339;DHT22;31071;51.478;5.710;2023-04-24T02:30:52;9.40;99.90
45339;DHT22;31071;51.478;5.710;2023-04-24T02:33:17;9.40;99.90
45339;DHT22;31071;51.478;5.710;2023-04-24T02:35:43;9.40;99.90
45339;DHT22;31071;51.478;5.710;2023-04-24T02:38:08;9.40;99.90
45339;DHT22;31071;51.478;5.710;2023-04-24T02:40:34;9.40;99.90
45339;DHT22;31071;51.478;5.710;2023-04-24T02:42:59;9.40;99.90
45339;DHT22;31071;51.478;5.710;2023-04-24T02:45:25;9.40;99.90
45339;DHT22;31071;51.478;5.710;2023-04-24T02:47:51;9.40;99.90
45339;DHT22;31071;51.478;5.710;2023-04-24T02:50:16;9.50;99.90
45339;DHT22;31071;51.478;5.710;2023-04-24T02:52:42;10.20;99.90
45339;DHT22;31071;51.478;5.710;2023-04-24T02:55:07;9.50;99.90
45339;DHT22;31071;51.478;5.710;2023-04-24T02:57:33;9.40;99.90
45339;DHT22;31071;51.478;5.710;2023-04-24T02:59:59;9.50;99.90
45339;DHT22;31071;51.478;5.710;2023-04-24T03:02:25;9.50;99.90
45339;DHT22;31071;51.478;5.710;2023-04-24T03:04:50;9.50;99.90
45339;DHT22;31071;51.478;5.710;2023-04-24T03:07:16;9.40;99.90
45339;DHT22;31071;51.478;5.710;2023-04-24T03:09:41;9.50;99.90
45339;DHT22;31071;51.478;5.710;2023-04-24T03:12:07;9.50;99.90
45339;DHT22;31071;51.478;5.710;2023-04-24T03:14:32;9.50;99.90
45339;DHT22;31071;51.478;5.710;2023-04-24T03:16:58;9.50;99.90
45339;DHT22;31071;51.478;5.710;2023-04-24T03:19:24;9.50;99.90
45339;DHT22;31071;51.478;5.710;2023-04-24T03:21:49;9.50;99.90
45339;DHT22;31071;51.478;5.710;2023-04-24T03:24:15;9.50;99.90
45339;DHT22;31071;51.478;5.710;2023-04-24T03:26:41;9.50;99.90
45339;DHT22;31071;51.478;5.710;2023-04-24T03:29:06;9.50;99.90
45339;DHT22;31071;51.478;5.710;2023-04-24T03:31:32;9.50;99.90
45339;DHT22;31071;51.478;5.710;2023-04-24T03:33:57;9.50;99.90
45339;DHT22;31071;51.478;5.710;2023-04-24T03:36:23;10.50;99.90
45339;DHT22;31071;51.478;5.710;2023-04-24T03:38:48;9.50;99.90
45339;DHT22;31071;51.478;5.710;2023-04-24T03:41:14;9.40;99.90
45339;DHT22;31071;51.478;5.710;2023-04-24T03:43:40;9.40;99.90
45339;DHT22;31071;51.478;5.710;2023-04-24T03:46:05;9.40;99.90
45339;DHT22;31071;51.478;5.710;2023-04-24T03:48:31;9.40;99.90
45339;DHT22;31071;51.478;5.710;2023-04-24T03:50:56;9.40;99.90
45339;DHT22;31071;51.478;5.710;2023-04-24T03:53:22;9.30;99.90
45339;DHT22;31071;51.478;5.710;2023-04-24T03:55:47;9.30;99.90
45339;DHT22;31071;51.478;5.710;2023-04-24T03:58:13;9.30;99.90
45339;DHT22;31071;51.478;5.710;2023-04-24T04:00:43;9.30;99.90
45339;DHT22;31071;51.478;5.710;2023-04-24T04:03:09;9.30;99.90
45339;DHT22;31071;51.478;5.710;2023-04-24T04:05:35;9.30;99.90
45339;DHT22;31071;51.478;5.710;2023-04-24T04:08:00;9.30;99.90
45339;DHT22;31071;51.478;5.710;2023-04-24T04:10:26;9.30;99.90
45339;DHT22;31071;51.478;5.710;2023-04-24T04:12:51;9.30;99.90
45339;DHT22;31071;51.478;5.710;2023-04-24T04:15:17;9.30;99.90
45339;DHT22;31071;51.478;5.710;2023-04-24T04:17:42;9.30;99.90
45339;DHT22;31071;51.478;5.710;2023-04-24T04:20:08;9.30;99.90
45339;DHT22;31071;51.478;5.710;2023-04-24T04:22:37;9.30;99.90
45339;DHT22;31071;51.478;5.710;2023-04-24T04:25:03;9.20;99.90
45339;DHT22;31071;51.478;5.710;2023-04-24T04:27:29;9.00;99.90
45339;DHT22;31071;51.478;5.710;2023-04-24T04:30:00;9.00;99.90
45339;DHT22;31071;51.478;5.710;2023-04-24T04:32:33;8.90;99.90
45339;DHT22;31071;51.478;5.710;2023-04-24T04:34:59;8.90;99.90
45339;DHT22;31071;51.478;5.710;2023-04-24T04:37:29;8.90;99.90
45339;DHT22;31071;51.478;5.710;2023-04-24T04:39:54;8.90;99.90
45339;DHT22;31071;51.478;5.710;2023-04-24T04:42:20;8.90;99.90
45339;DHT22;31071;51.478;5.710;2023-04-24T04:44:47;8.90;99.90
45339;DHT22;31071;51.478;5.710;2023-04-24T04:47:13;8.80;99.90
45339;DHT22;31071;51.478;5.710;2023-04-24T04:49:39;8.80;99.90
45339;DHT22;31071;51.478;5.710;2023-04-24T04:52:04;8.80;99.90
45339;DHT22;31071;51.478;5.710;2023-04-24T04:54:30;8.80;99.90
45339;DHT22;31071;51.478;5.710;2023-04-24T04:56:56;8.70;99.90
45339;DHT22;31071;51.478;5.710;2023-04-24T04:59:22;8.70;99.90
45339;DHT22;31071;51.478;5.710;2023-04-24T05:01:48;8.60;99.90
45339;DHT22;31071;51.478;5.710;2023-04-24T05:04:13;8.60;99.90
45339;DHT22;31071;51.478;5.710;2023-04-24T05:06:39;8.60;99.90
45339;DHT22;31071;51.478;5.710;2023-04-24T05:09:05;10.20;99.90
45339;DHT22;31071;51.478;5.710;2023-04-24T05:11:30;8.60;99.90
45339;DHT22;31071;51.478;5.710;2023-04-24T05:13:56;8.60;99.90
45339;DHT22;31071;51.478;5.710;2023-04-24T05:16:21;8.60;99.90
45339;DHT22;31071;51.478;5.710;2023-04-24T05:18:47;8.50;99.90
45339;DHT22;31071;51.478;5.710;2023-04-24T05:21:12;8.50;99.90
45339;DHT22;31071;51.478;5.710;2023-04-24T05:23:38;8.60;99.90
45339;DHT22;31071;51.478;5.710;2023-04-24T05:26:04;8.60;99.90
45339;DHT22;31071;51.478;5.710;2023-04-24T05:28:29;8.60;99.90
45339;DHT22;31071;51.478;5.710;2023-04-24T05:30:55;8.60;99.90
45339;DHT22;31071;51.478;5.710;2023-04-24T05:33:21;8.60;99.90
45339;DHT22;31071;51.478;5.710;2023-04-24T05:35:47;8.60;99.90
45339;DHT22;31071;51.478;5.710;2023-04-24T05:38:14;8.70;99.90
45339;DHT22;31071;51.478;5.710;2023-04-24T05:40:43;9.50;99.90
45339;DHT22;31071;51.478;5.710;2023-04-24T05:43:08;8.70;99.90
45339;DHT22;31071;51.478;5.710;2023-04-24T05:45:34;8.70;99.90
45339;DHT22;31071;51.478;5.710;2023-04-24T05:48:01;8.70;99.90
45339;DHT22;31071;51.478;5.710;2023-04-24T05:50:27;8.60;99.90
45339;DHT22;31071;51.478;5.710;2023-04-24T05:52:52;8.70;99.90
45339;DHT22;31071;51.478;5.710;2023-04-24T05:55:19;8.60;99.90
45339;DHT22;31071;51.478;5.710;2023-04-24T05:57:44;8.60;99.90
45339;DHT22;31071;51.478;5.710;2023-04-24T06:00:10;8.60;99.90
45339;DHT22;31071;51.478;5.710;2023-04-24T06:02:37;8.60;99.90
45339;DHT22;31071;51.478;5.710;2023-04-24T06:05:03;8.60;99.90
45339;DHT22;31071;51.478;5.710;2023-04-24T06:07:32;8.60;99.90
45339;DHT22;31071;51.478;5.710;2023-04-24T06:09:58;8.50;99.90
45339;DHT22;31071;51.478;5.710;2023-04-24T06:12:23;8.50;99.90
45339;DHT22;31071;51.478;5.710;2023-04-24T06:14:49;8.40;99.90
45339;DHT22;31071;51.478;5.710;2023-04-24T06:17:15;8.40;99.90
45339;DHT22;31071;51.478;5.710;2023-04-24T06:19:41;8.40;99.90
45339;DHT22;31071;51.478;5.710;2023-04-24T06:22:06;8.30;99.90
45339;DHT22;31071;51.478;5.710;2023-04-24T06:24:34;8.30;99.90
45339;DHT22;31071;51.478;5.710;2023-04-24T06:26:59;8.40;99.90
45339;DHT22;31071;51.478;5.710;2023-04-24T06:29:25;8.40;99.90
45339;DHT22;31071;51.478;5.710;2023-04-24T06:31:51;8.40;99.90
45339;DHT22;31071;51.478;5.710;2023-04-24T06:34:16;8.40;99.90
45339;DHT22;31071;51.478;5.710;2023-04-24T06:36:42;8.40;99.90
45339;DHT22;31071;51.478;5.710;2023-04-24T06:39:07;8.40;99.90
45339;DHT22;31071;51.478;5.710;2023-04-24T06:41:33;8.50;99.90
45339;DHT22;31071;51.478;5.710;2023-04-24T06:43:59;8.50;99.90
45339;DHT22;31071;51.478;5.710;2023-04-24T06:46:24;8.50;99.90
45339;DHT22;31071;51.478;5.710;2023-04-24T06:48:52;9.00;99.90
45339;DHT22;31071;51.478;5.710;2023-04-24T06:51:22;8.60;99.90
45339;DHT22;31071;51.478;5.710;2023-04-24T06:53:47;8.70;99.90
45339;DHT22;31071;51.478;5.710;2023-04-24T06:56:13;8.70;99.90
45339;DHT22;31071;51.478;5.710;2023-04-24T06:58:39;8.60;99.90
45339;DHT22;31071;51.478;5.710;2023-04-24T07:01:05;8.70;99.90
45339;DHT22;31071;51.478;5.710;2023-04-24T07:03:30;8.60;99.90
45339;DHT22;31071;51.478;5.710;2023-04-24T07:05:56;8.60;99.90
45339;DHT22;31071;51.478;5.710;2023-04-24T07:08:23;8.70;99.90
45339;DHT22;31071;51.478;5.710;2023-04-24T07:10:50;8.80;99.90
45339;DHT22;31071;51.478;5.710;2023-04-24T07:13:16;8.80;99.90
45339;DHT22;31071;51.478;5.710;2023-04-24T07:15:42;8.70;99.90
45339;DHT22;31071;51.478;5.710;2023-04-24T07:18:08;8.80;99.90
45339;DHT22;31071;51.478;5.710;2023-04-24T07:20:33;8.70;99.90
45339;DHT22;31071;51.478;5.710;2023-04-24T07:22:59;8.70;99.90
45339;DHT22;31071;51.478;5.710;2023-04-24T07:25:35;8.70;99.90
45339;DHT22;31071;51.478;5.710;2023-04-24T07:28:07;8.70;99.90
45339;DHT22;31071;51.478;5.710;2023-04-24T07:30:33;8.70;99.90
45339;DHT22;31071;51.478;5.710;2023-04-24T07:32:59;8.60;99.90
45339;DHT22;31071;51.478;5.710;2023-04-24T07:35:26;8.60;99.90
45339;DHT22;31071;51.478;5.710;2023-04-24T07:37:53;8.50;99.90
45339;DHT22;31071;51.478;5.710;2023-04-24T07:40:20;8.50;99.90
45339;DHT22;31071;51.478;5.710;2023-04-24T07:42:45;8.50;99.90
45339;DHT22;31071;51.478;5.710;2023-04-24T07:45:13;8.40;99.90
45339;DHT22;31071;51.478;5.710;2023-04-24T07:47:39;8.40;99.90
45339;DHT22;31071;51.478;5.710;2023-04-24T07:50:08;8.40;99.90
45339;DHT22;31071;51.478;5.710;2023-04-24T07:52:34;8.40;99.90
45339;DHT22;31071;51.478;5.710;2023-04-24T07:55:00;8.40;99.90
45339;DHT22;31071;51.478;5.710;2023-04-24T07:57:27;8.30;99.90
45339;DHT22;31071;51.478;5.710;2023-04-24T07:59:53;8.30;99.90
45339;DHT22;31071;51.478;5.710;2023-04-24T08:02:18;8.30;99.90
45339;DHT22;31071;51.478;5.710;2023-04-24T08:04:44;8.30;99.90
45339;DHT22;31071;51.478;5.710;2023-04-24T08:07:09;8.30;99.90
45339;DHT22;31071;51.478;5.710;2023-04-24T08:09:35;8.40;99.90
45339;DHT22;31071;51.478;5.710;2023-04-24T08:12:00;8.40;99.90
45339;DHT22;31071;51.478;5.710;2023-04-24T08:14:27;8.30;99.90
45339;DHT22;31071;51.478;5.710;2023-04-24T08:16:54;8.30;99.90
45339;DHT22;31071;51.478;5.710;2023-04-24T08:19:20;8.30;99.90
45339;DHT22;31071;51.478;5.710;2023-04-24T08:21:46;8.30;99.90
45339;DHT22;31071;51.478;5.710;2023-04-24T08:24:12;8.30;99.90
45339;DHT22;31071;51.478;5.710;2023-04-24T08:26:37;8.40;99.90
45339;DHT22;31071;51.478;5.710;2023-04-24T08:29:03;8.40;99.90
45339;DHT22;31071;51.478;5.710;2023-04-24T08:31:28;8.40;99.90
45339;DHT22;31071;51.478;5.710;2023-04-24T08:33:54;8.40;99.90
45339;DHT22;31071;51.478;5.710;2023-04-24T08:36:20;8.50;99.90
45339;DHT22;31071;51.478;5.710;2023-04-24T08:38:45;8.50;99.90
45339;DHT22;31071;51.478;5.710;2023-04-24T08:41:14;8.60;99.90
45339;DHT22;31071;51.478;5.710;2023-04-24T08:43:40;8.50;99.90
45339;DHT22;31071;51.478;5.710;2023-04-24T08:46:06;8.50;99.90
45339;DHT22;31071;51.478;5.710;2023-04-24T08:48:32;8.50;99.90
45339;DHT22;31071;51.478;5.710;2023-04-24T08:50:59;8.60;99.90
45339;DHT22;31071;51.478;5.710;2023-04-24T08:53:25;8.60;99.90
45339;DHT22;31071;51.478;5.710;2023-04-24T08:55:51;8.60;99.90
45339;DHT22;31071;51.478;5.710;2023-04-24T08:58:19;8.70;99.90
45339;DHT22;31071;51.478;5.710;2023-04-24T09:00:45;8.80;99.90
45339;DHT22;31071;51.478;5.710;2023-04-24T09:03:16;8.70;99.90
45339;DHT22;31071;51.478;5.710;2023-04-24T09:05:47;8.70;99.90
45339;DHT22;31071;51.478;5.710;2023-04-24T09:08:13;8.70;99.90
45339;DHT22;31071;51.478;5.710;2023-04-24T09:10:40;8.80;99.90
45339;DHT22;31071;51.478;5.710;2023-04-24T09:13:06;8.80;99.90
45339;DHT22;31071;51.478;5.710;2023-04-24T09:15:34;8.80;99.90
45339;DHT22;31071;51.478;5.710;2023-04-24T09:18:00;8.90;99.90
45339;DHT22;31071;51.478;5.710;2023-04-24T09:20:26;9.00;99.90
45339;DHT22;31071;51.478;5.710;2023-04-24T09:22:54;9.20;99.90
45339;DHT22;31071;51.478;5.710;2023-04-24T09:25:21;9.30;99.90
45339;DHT22;31071;51.478;5.710;2023-04-24T09:27:47;12.20;99.90
45339;DHT22;31071;51.478;5.710;2023-04-24T09:30:13;9.20;99.90
45339;DHT22;31071;51.478;5.710;2023-04-24T09:32:39;9.40;99.90
45339;DHT22;31071;51.478;5.710;2023-04-24T09:35:11;9.00;99.90
45339;DHT22;31071;51.478;5.710;2023-04-24T09:37:43;8.80;99.90
45339;DHT22;31071;51.478;5.710;2023-04-24T09:40:20;8.80;99.90
45339;DHT22;31071;51.478;5.710;2023-04-24T09:42:56;8.80;99.90
45339;DHT22;31071;51.478;5.710;2023-04-24T09:45:36;8.90;99.90
45339;DHT22;31071;51.478;5.710;2023-04-24T09:48:05;9.00;99.90
45339;DHT22;31071;51.478;5.710;2023-04-24T09:50:34;9.20;99.90
45339;DHT22;31071;51.478;5.710;2023-04-24T09:53:05;9.50;99.90
45339;DHT22;31071;51.478;5.710;2023-04-24T09:55:32;9.70;99.90
45339;DHT22;31071;51.478;5.710;2023-04-24T09:57:59;9.60;99.90
45339;DHT22;31071;51.478;5.710;2023-04-24T10:00:32;9.40;99.90
45339;DHT22;31071;51.478;5.710;2023-04-24T10:03:03;9.20;99.90
45339;DHT22;31071;51.478;5.710;2023-04-24T10:05:29;9.10;99.90
45339;DHT22;31071;51.478;5.710;2023-04-24T10:07:57;9.10;99.90
45339;DHT22;31071;51.478;5.710;2023-04-24T10:10:23;9.10;99.90
45339;DHT22;31071;51.478;5.710;2023-04-24T10:12:49;9.20;99.90
45339;DHT22;31071;51.478;5.710;2023-04-24T10:15:16;9.20;99.90
45339;DHT22;31071;51.478;5.710;2023-04-24T10:17:49;9.20;99.90
45339;DHT22;31071;51.478;5.710;2023-04-24T10:20:21;9.50;99.90
45339;DHT22;31071;51.478;5.710;2023-04-24T10:22:54;9.60;99.90
45339;DHT22;31071;51.478;5.710;2023-04-24T10:25:21;9.80;99.90
45339;DHT22;31071;51.478;5.710;2023-04-24T10:27:48;10.10;99.90
45339;DHT22;31071;51.478;5.710;2023-04-24T10:30:14;10.60;99.90
45339;DHT22;31071;51.478;5.710;2023-04-24T10:32:40;10.80;99.90
45339;DHT22;31071;51.478;5.710;2023-04-24T10:35:07;10.70;99.90
45339;DHT22;31071;51.478;5.710;2023-04-24T10:37:57;11.00;99.90
45339;DHT22;31071;51.478;5.710;2023-04-24T10:40:31;10.70;99.90
45339;DHT22;31071;51.478;5.710;2023-04-24T10:42:57;10.40;99.90
45339;DHT22;31071;51.478;5.710;2023-04-24T10:45:23;10.20;99.90
45339;DHT22;31071;51.478;5.710;2023-04-24T10:47:59;10.00;99.90
45339;DHT22;31071;51.478;5.710;2023-04-24T10:50:28;9.90;99.90
45339;DHT22;31071;51.478;5.710;2023-04-24T10:53:05;9.80;99.90
45339;DHT22;31071;51.478;5.710;2023-04-24T10:55:52;9.80;99.90
45339;DHT22;31071;51.478;5.710;2023-04-24T10:58:22;9.70;99.90
45339;DHT22;31071;51.478;5.710;2023-04-24T11:00:56;9.70;99.90
45339;DHT22;31071;51.478;5.710;2023-04-24T11:03:25;9.80;99.90
45339;DHT22;31071;51.478;5.710;2023-04-24T11:06:02;9.90;99.90
45339;DHT22;31071;51.478;5.710;2023-04-24T11:09:02;13.10;99.90
45339;DHT22;31071;51.478;5.710;2023-04-24T11:11:30;10.30;99.90
45339;DHT22;31071;51.478;5.710;2023-04-24T11:16:52;10.80;99.90
45339;DHT22;31071;51.478;5.710;2023-04-24T11:19:24;10.50;99.90
45339;DHT22;31071;51.478;5.710;2023-04-24T11:22:04;10.20;99.90
45339;DHT22;31071;51.478;5.710;2023-04-24T11:27:11;10.30;99.90
45339;DHT22;31071;51.478;5.710;2023-04-24T11:29:47;10.40;99.90
45339;DHT22;31071;51.478;5.710;2023-04-24T11:32:17;10.30;99.90
45339;DHT22;31071;51.478;5.710;2023-04-24T11:34:48;10.20;99.90
45339;DHT22;31071;51.478;5.710;2023-04-24T11:37:14;10.10;99.90
45339;DHT22;31071;51.478;5.710;2023-04-24T11:39:40;9.90;99.90
45339;DHT22;31071;51.478;5.710;2023-04-24T11:42:07;10.00;99.90
45339;DHT22;31071;51.478;5.710;2023-04-24T11:44:34;9.70;99.90
45339;DHT22;31071;51.478;5.710;2023-04-24T11:47:04;9.50;99.90
45339;DHT22;31071;51.478;5.710;2023-04-24T11:49:30;10.60;99.90
45339;DHT22;31071;51.478;5.710;2023-04-24T11:51:56;9.20;99.90
45339;DHT22;31071;51.478;5.710;2023-04-24T11:54:22;9.20;99.90
45339;DHT22;31071;51.478;5.710;2023-04-24T11:56:49;9.80;99.90
45339;DHT22;31071;51.478;5.710;2023-04-24T11:59:15;9.10;99.90
45339;DHT22;31071;51.478;5.710;2023-04-24T12:01:46;9.80;99.90
45339;DHT22;31071;51.478;5.710;2023-04-24T12:04:13;9.40;99.90
45339;DHT22;31071;51.478;5.710;2023-04-24T12:06:39;9.70;99.90
45339;DHT22;31071;51.478;5.710;2023-04-24T12:09:05;10.00;99.90
45339;DHT22;31071;51.478;5.710;2023-04-24T12:11:30;10.20;99.90
45339;DHT22;31071;51.478;5.710;2023-04-24T12:13:56;10.10;99.90
45339;DHT22;31071;51.478;5.710;2023-04-24T12:16:22;10.00;99.90
45339;DHT22;31071;51.478;5.710;2023-04-24T12:18:48;10.20;99.90
45339;DHT22;31071;51.478;5.710;2023-04-24T12:23:44;10.50;99.90
45339;DHT22;31071;51.478;5.710;2023-04-24T12:26:11;10.50;99.90
45339;DHT22;31071;51.478;5.710;2023-04-24T12:28:41;10.20;99.90
45339;DHT22;31071;51.478;5.710;2023-04-24T12:31:09;10.10;99.90
45339;DHT22;31071;51.478;5.710;2023-04-24T12:33:35;11.10;99.90
45339;DHT22;31071;51.478;5.710;2023-04-24T12:36:01;10.30;99.90
45339;DHT22;31071;51.478;5.710;2023-04-24T12:38:29;12.20;99.90
45339;DHT22;31071;51.478;5.710;2023-04-24T12:41:03;11.60;99.90
45339;DHT22;31071;51.478;5.710;2023-04-24T12:43:29;10.70;99.90
45339;DHT22;31071;51.478;5.710;2023-04-24T12:45:55;10.90;99.90
45339;DHT22;31071;51.478;5.710;2023-04-24T12:48:20;10.90;99.90
45339;DHT22;31071;51.478;5.710;2023-04-24T12:50:48;10.90;99.90
45339;DHT22;31071;51.478;5.710;2023-04-24T12:53:14;11.00;99.90
45339;DHT22;31071;51.478;5.710;2023-04-24T12:55:40;11.20;99.90
45339;DHT22;31071;51.478;5.710;2023-04-24T12:58:07;11.30;99.90
45339;DHT22;31071;51.478;5.710;2023-04-24T13:00:33;11.30;99.90
45339;DHT22;31071;51.478;5.710;2023-04-24T13:02:58;11.50;99.90
45339;DHT22;31071;51.478;5.710;2023-04-24T13:05:24;11.60;99.90
45339;DHT22;31071;51.478;5.710;2023-04-24T13:07:50;11.90;99.90
45339;DHT22;31071;51.478;5.710;2023-04-24T13:10:15;12.00;99.90
45339;DHT22;31071;51.478;5.710;2023-04-24T13:12:41;11.80;99.90
45339;DHT22;31071;51.478;5.710;2023-04-24T13:15:10;13.20;99.90
45339;DHT22;31071;51.478;5.710;2023-04-24T13:17:36;11.90;99.90
45339;DHT22;31071;51.478;5.710;2023-04-24T13:20:01;11.90;99.90
45339;DHT22;31071;51.478;5.710;2023-04-24T13:22:27;12.60;99.90
45339;DHT22;31071;51.478;5.710;2023-04-24T13:24:53;11.70;99.90
45339;DHT22;31071;51.478;5.710;2023-04-24T13:27:19;11.50;99.90
45339;DHT22;31071;51.478;5.710;2023-04-24T13:29:45;11.50;99.90
45339;DHT22;31071;51.478;5.710;2023-04-24T13:32:10;11.40;99.90
45339;DHT22;31071;51.478;5.710;2023-04-24T13:34:36;11.20;99.90
45339;DHT22;31071;51.478;5.710;2023-04-24T13:37:02;11.10;99.90
45339;DHT22;31071;51.478;5.710;2023-04-24T13:39:29;10.80;99.90
45339;DHT22;31071;51.478;5.710;2023-04-24T13:41:54;10.80;99.90
45339;DHT22;31071;51.478;5.710;2023-04-24T13:44:21;10.80;99.90
45339;DHT22;31071;51.478;5.710;2023-04-24T13:46:48;10.90;99.90
45339;DHT22;31071;51.478;5.710;2023-04-24T13:49:15;11.20;99.90
45339;DHT22;31071;51.478;5.710;2023-04-24T13:51:43;10.80;99.90
45339;DHT22;31071;51.478;5.710;2023-04-24T13:54:09;10.40;99.90
45339;DHT22;31071;51.478;5.710;2023-04-24T13:56:34;10.20;99.90
45339;DHT22;31071;51.478;5.710;2023-04-24T13:59:00;10.10;99.90
45339;DHT22;31071;51.478;5.710;2023-04-24T14:01:26;10.10;99.90
45339;DHT22;31071;51.478;5.710;2023-04-24T14:03:52;10.30;99.90
45339;DHT22;31071;51.478;5.710;2023-04-24T14:06:19;10.50;99.90
45339;DHT22;31071;51.478;5.710;2023-04-24T14:08:44;10.70;99.90
45339;DHT22;31071;51.478;5.710;2023-04-24T14:11:10;11.10;99.90
45339;DHT22;31071;51.478;5.710;2023-04-24T14:13:37;11.60;99.90
45339;DHT22;31071;51.478;5.710;2023-04-24T14:16:03;11.90;99.90
45339;DHT22;31071;51.478;5.710;2023-04-24T14:18:29;12.00;99.90
45339;DHT22;31071;51.478;5.710;2023-04-24T14:20:54;11.70;99.90
45339;DHT22;31071;51.478;5.710;2023-04-24T14:23:20;11.60;99.90
45339;DHT22;31071;51.478;5.710;2023-04-24T14:25:45;11.70;99.90
45339;DHT22;31071;51.478;5.710;2023-04-24T14:28:13;12.10;99.90
45339;DHT22;31071;51.478;5.710;2023-04-24T14:30:39;11.90;99.90
45339;DHT22;31071;51.478;5.710;2023-04-24T14:33:06;11.70;99.90
45339;DHT22;31071;51.478;5.710;2023-04-24T14:35:31;11.50;99.90
45339;DHT22;31071;51.478;5.710;2023-04-24T14:37:58;11.40;99.90
45339;DHT22;31071;51.478;5.710;2023-04-24T14:40:24;11.70;99.90
45339;DHT22;31071;51.478;5.710;2023-04-24T14:42:49;10.60;99.90
45339;DHT22;31071;51.478;5.710;2023-04-24T14:47:41;10.20;99.90
45339;DHT22;31071;51.478;5.710;2023-04-24T14:50:07;9.90;99.90
45339;DHT22;31071;51.478;5.710;2023-04-24T14:55:00;10.60;99.90
45339;DHT22;31071;51.478;5.710;2023-04-24T14:57:26;13.20;99.90
45339;DHT22;31071;51.478;5.710;2023-04-24T15:02:18;11.10;99.90
45339;DHT22;31071;51.478;5.710;2023-04-24T15:07:10;12.00;99.90
45339;DHT22;31071;51.478;5.710;2023-04-24T15:12:13;13.60;99.90
45339;DHT22;31071;51.478;5.710;2023-04-24T15:17:05;12.30;99.90
45339;DHT22;31071;51.478;5.710;2023-04-24T15:19:34;13.60;99.90
45339;DHT22;31071;51.478;5.710;2023-04-24T15:21:59;12.40;99.60
45339;DHT22;31071;51.478;5.710;2023-04-24T15:26:51;12.70;99.00
45339;DHT22;31071;51.478;5.710;2023-04-24T15:29:17;15.10;99.20
45339;DHT22;31071;51.478;5.710;2023-04-24T15:31:42;14.10;99.30
45339;DHT22;31071;51.478;5.710;2023-04-24T15:34:08;11.80;98.10
45339;DHT22;31071;51.478;5.710;2023-04-24T15:36:34;15.40;99.00
45339;DHT22;31071;51.478;5.710;2023-04-24T15:39:01;12.70;97.50
45339;DHT22;31071;51.478;5.710;2023-04-24T15:41:27;15.90;99.30
45339;DHT22;31071;51.478;5.710;2023-04-24T15:53:37;11.70;99.90
45339;DHT22;31071;51.478;5.710;2023-04-24T15:58:28;11.40;99.90
45339;DHT22;31071;51.478;5.710;2023-04-24T16:00:54;10.50;99.90
45339;DHT22;31071;51.478;5.710;2023-04-24T16:03:20;10.60;99.90
45339;DHT22;31071;51.478;5.710;2023-04-24T16:10:39;11.00;99.90
45339;DHT22;31071;51.478;5.710;2023-04-24T16:13:05;10.60;99.90
45339;DHT22;31071;51.478;5.710;2023-04-24T16:15:31;13.10;99.90
45339;DHT22;31071;51.478;5.710;2023-04-24T16:18:06;11.20;99.90
45339;DHT22;31071;51.478;5.710;2023-04-24T16:20:32;13.10;99.90
45339;DHT22;31071;51.478;5.710;2023-04-24T16:22:58;10.70;99.90